sensor_id;sensor_type;location;lat;lon;timestamp;P1;durP1;ratioP1;P2;durP2;ratioP2
24631;SDS011;59977;48.782;9.190;2023-02-23T00:00:07;25.15;;;12.02;;
24631;SDS011;59977;48.782;9.190;2023-02-23T00:02:49;32.55;;;13.30;;
24631;SDS011;59977;48.782;9.190;2023-02-23T00:05:15;30.38;;;13.80;;
24631;SDS011;59977;48.782;9.190;2023-02-23T00:07:42;36.85;;;13.60;;
24631;SDS011;59977;48.782;9.190;2023-02-23T00:10:10;31.10;;;13.35;;
24631;SDS011;59977;48.782;9.190;2023-02-23T00:12:40;37.30;;;14.07;;
24631;SDS011;59977;48.782;9.190;2023-02-23T00:15:07;26.98;;;13.82;;
24631;SDS011;59977;48.782;9.190;2023-02-23T00:17:33;31.77;;;13.02;;
24631;SDS011;59977;48.782;9.190;2023-02-23T00:20:01;28.88;;;13.23;;
24631;SDS011;59977;48.782;9.190;2023-02-23T00:22:31;27.20;;;12.60;;
24631;SDS011;59977;48.782;9.190;2023-02-23T00:24:57;27.33;;;13.75;;
24631;SDS011;59977;48.782;9.190;2023-02-23T00:27:23;31.90;;;13.35;;
24631;SDS011;59977;48.782;9.190;2023-02-23T00:29:49;34.88;;;14.88;;
24631;SDS011;59977;48.782;9.190;2023-02-23T00:32:15;28.52;;;13.80;;
24631;SDS011;59977;48.782;9.190;2023-02-23T00:34:45;30.58;;;14.10;;
24631;SDS011;59977;48.782;9.190;2023-02-23T00:37:14;28.60;;;13.20;;
24631;SDS011;59977;48.782;9.190;2023-02-23T00:39:41;36.88;;;13.93;;
24631;SDS011;59977;48.782;9.190;2023-02-23T00:42:07;42.80;;;15.00;;
24631;SDS011;59977;48.782;9.190;2023-02-23T00:44:34;36.42;;;14.45;;
24631;SDS011;59977;48.782;9.190;2023-02-23T00:47:04;35.17;;;14.27;;
24631;SDS011;59977;48.782;9.190;2023-02-23T00:49:30;31.23;;;14.45;;
24631;SDS011;59977;48.782;9.190;2023-02-23T00:51:56;36.38;;;14.52;;
24631;SDS011;59977;48.782;9.190;2023-02-23T00:54:22;34.78;;;14.48;;
24631;SDS011;59977;48.782;9.190;2023-02-23T00:56:48;30.65;;;14.48;;
24631;SDS011;59977;48.782;9.190;2023-02-23T00:59:14;31.10;;;14.52;;
24631;SDS011;59977;48.782;9.190;2023-02-23T01:01:40;33.55;;;15.10;;
24631;SDS011;59977;48.782;9.190;2023-02-23T01:04:06;39.20;;;15.60;;
24631;SDS011;59977;48.782;9.190;2023-02-23T01:06:33;35.83;;;15.55;;
24631;SDS011;59977;48.782;9.190;2023-02-23T01:09:04;33.88;;;15.02;;
24631;SDS011;59977;48.782;9.190;2023-02-23T01:11:31;31.35;;;15.73;;
24631;SDS011;59977;48.782;9.190;2023-02-23T01:13:57;31.23;;;14.80;;
24631;SDS011;59977;48.782;9.190;2023-02-23T01:16:24;37.05;;;15.65;;
24631;SDS011;59977;48.782;9.190;2023-02-23T01:18:52;36.97;;;14.85;;
24631;SDS011;59977;48.782;9.190;2023-02-23T01:21:22;30.10;;;14.40;;
24631;SDS011;59977;48.782;9.190;2023-02-23T01:23:49;27.15;;;15.05;;
24631;SDS011;59977;48.782;9.190;2023-02-23T01:26:19;31.08;;;15.55;;
24631;SDS011;59977;48.782;9.190;2023-02-23T01:28:52;39.20;;;15.93;;
24631;SDS011;59977;48.782;9.190;2023-02-23T01:31:19;32.95;;;16.75;;
24631;SDS011;59977;48.782;9.190;2023-02-23T01:33:45;31.48;;;17.15;;
24631;SDS011;59977;48.782;9.190;2023-02-23T01:36:11;33.67;;;16.95;;
24631;SDS011;59977;48.782;9.190;2023-02-23T01:38:38;33.45;;;17.90;;
24631;SDS011;59977;48.782;9.190;2023-02-23T01:41:04;34.33;;;17.95;;
24631;SDS011;59977;48.782;9.190;2023-02-23T01:43:31;39.75;;;17.88;;
24631;SDS011;59977;48.782;9.190;2023-02-23T01:45:57;34.88;;;17.15;;
24631;SDS011;59977;48.782;9.190;2023-02-23T01:48:27;35.08;;;17.17;;
24631;SDS011;59977;48.782;9.190;2023-02-23T01:50:56;33.08;;;17.58;;
24631;SDS011;59977;48.782;9.190;2023-02-23T01:53:24;39.50;;;18.10;;
24631;SDS011;59977;48.782;9.190;2023-02-23T01:55:55;37.53;;;18.20;;
24631;SDS011;59977;48.782;9.190;2023-02-23T01:58:22;39.97;;;18.35;;
24631;SDS011;59977;48.782;9.190;2023-02-23T02:00:53;37.58;;;18.80;;
24631;SDS011;59977;48.782;9.190;2023-02-23T02:03:30;30.27;;;18.17;;
24631;SDS011;59977;48.782;9.190;2023-02-23T02:05:58;41.42;;;19.75;;
24631;SDS011;59977;48.782;9.190;2023-02-23T02:08:25;36.15;;;18.48;;
24631;SDS011;59977;48.782;9.190;2023-02-23T02:10:52;38.78;;;19.15;;
24631;SDS011;59977;48.782;9.190;2023-02-23T02:13:25;38.63;;;19.73;;
24631;SDS011;59977;48.782;9.190;2023-02-23T02:15:57;37.60;;;19.60;;
24631;SDS011;59977;48.782;9.190;2023-02-23T02:26:43;43.80;;;18.48;;
24631;SDS011;59977;48.782;9.190;2023-02-23T02:31:45;35.65;;;19.25;;
24631;SDS011;59977;48.782;9.190;2023-02-23T02:40:09;36.95;;;19.80;;
24631;SDS011;59977;48.782;9.190;2023-02-23T02:45:26;43.55;;;20.38;;
24631;SDS011;59977;48.782;9.190;2023-02-23T02:53:09;40.90;;;21.10;;
24631;SDS011;59977;48.782;9.190;2023-02-23T02:55:37;35.60;;;20.35;;
24631;SDS011;59977;48.782;9.190;2023-02-23T02:58:07;41.55;;;20.70;;
24631;SDS011;59977;48.782;9.190;2023-02-23T03:00:45;41.35;;;21.20;;
24631;SDS011;59977;48.782;9.190;2023-02-23T03:03:35;34.00;;;20.48;;
24631;SDS011;59977;48.782;9.190;2023-02-23T03:06:22;36.78;;;20.38;;
24631;SDS011;59977;48.782;9.190;2023-02-23T03:09:42;38.65;;;20.90;;
24631;SDS011;59977;48.782;9.190;2023-02-23T03:17:59;35.83;;;21.00;;
24631;SDS011;59977;48.782;9.190;2023-02-23T03:20:53;41.97;;;21.20;;
24631;SDS011;59977;48.782;9.190;2023-02-23T03:23:58;42.40;;;20.88;;
24631;SDS011;59977;48.782;9.190;2023-02-23T03:26:51;46.28;;;21.83;;
24631;SDS011;59977;48.782;9.190;2023-02-23T03:32:48;39.65;;;20.50;;
24631;SDS011;59977;48.782;9.190;2023-02-23T03:35:55;33.55;;;19.85;;
24631;SDS011;59977;48.782;9.190;2023-02-23T03:38:46;39.33;;;20.38;;
24631;SDS011;59977;48.782;9.190;2023-02-23T03:41:32;41.92;;;19.85;;
24631;SDS011;59977;48.782;9.190;2023-02-23T03:44:24;40.63;;;19.70;;
24631;SDS011;59977;48.782;9.190;2023-02-23T03:47:11;34.50;;;20.30;;
24631;SDS011;59977;48.782;9.190;2023-02-23T03:49:58;37.63;;;20.98;;
24631;SDS011;59977;48.782;9.190;2023-02-23T03:52:49;42.08;;;21.35;;
24631;SDS011;59977;48.782;9.190;2023-02-23T03:55:39;35.70;;;20.75;;
24631;SDS011;59977;48.782;9.190;2023-02-23T03:58:33;38.30;;;20.02;;
24631;SDS011;59977;48.782;9.190;2023-02-23T04:01:21;39.38;;;20.15;;
24631;SDS011;59977;48.782;9.190;2023-02-23T04:04:08;33.45;;;18.88;;
24631;SDS011;59977;48.782;9.190;2023-02-23T04:06:53;48.28;;;20.10;;
24631;SDS011;59977;48.782;9.190;2023-02-23T04:09:39;44.90;;;21.50;;
24631;SDS011;59977;48.782;9.190;2023-02-23T04:12:32;37.78;;;21.05;;
24631;SDS011;59977;48.782;9.190;2023-02-23T04:15:27;42.70;;;22.10;;
24631;SDS011;59977;48.782;9.190;2023-02-23T04:17:56;39.75;;;20.75;;
24631;SDS011;59977;48.782;9.190;2023-02-23T04:20:22;37.40;;;20.17;;
24631;SDS011;59977;48.782;9.190;2023-02-23T04:22:49;39.45;;;21.38;;
24631;SDS011;59977;48.782;9.190;2023-02-23T04:25:15;43.35;;;21.38;;
24631;SDS011;59977;48.782;9.190;2023-02-23T04:27:44;38.90;;;21.15;;
24631;SDS011;59977;48.782;9.190;2023-02-23T04:30:10;31.55;;;19.80;;
24631;SDS011;59977;48.782;9.190;2023-02-23T04:32:37;45.10;;;21.30;;
24631;SDS011;59977;48.782;9.190;2023-02-23T04:35:03;39.22;;;21.40;;
24631;SDS011;59977;48.782;9.190;2023-02-23T04:37:29;38.00;;;20.35;;
24631;SDS011;59977;48.782;9.190;2023-02-23T04:39:55;40.10;;;20.65;;
24631;SDS011;59977;48.782;9.190;2023-02-23T04:42:21;47.45;;;21.60;;
24631;SDS011;59977;48.782;9.190;2023-02-23T04:44:47;47.40;;;21.73;;
24631;SDS011;59977;48.782;9.190;2023-02-23T04:47:13;36.88;;;21.52;;
24631;SDS011;59977;48.782;9.190;2023-02-23T04:49:40;35.75;;;21.05;;
24631;SDS011;59977;48.782;9.190;2023-02-23T04:52:06;36.70;;;22.15;;
24631;SDS011;59977;48.782;9.190;2023-02-23T04:54:32;37.05;;;22.30;;
24631;SDS011;59977;48.782;9.190;2023-02-23T04:56:57;43.83;;;23.02;;
24631;SDS011;59977;48.782;9.190;2023-02-23T04:59:23;46.28;;;22.60;;
24631;SDS011;59977;48.782;9.190;2023-02-23T05:01:50;45.67;;;22.63;;
24631;SDS011;59977;48.782;9.190;2023-02-23T05:04:16;37.40;;;21.27;;
24631;SDS011;59977;48.782;9.190;2023-02-23T05:06:42;43.28;;;21.27;;
24631;SDS011;59977;48.782;9.190;2023-02-23T05:09:08;47.97;;;21.73;;
24631;SDS011;59977;48.782;9.190;2023-02-23T05:11:34;41.83;;;21.88;;
24631;SDS011;59977;48.782;9.190;2023-02-23T05:14:00;40.63;;;21.55;;
24631;SDS011;59977;48.782;9.190;2023-02-23T05:16:26;41.75;;;22.08;;
24631;SDS011;59977;48.782;9.190;2023-02-23T05:18:52;40.25;;;21.45;;
24631;SDS011;59977;48.782;9.190;2023-02-23T05:21:18;40.20;;;21.75;;
24631;SDS011;59977;48.782;9.190;2023-02-23T05:23:45;37.45;;;21.60;;
24631;SDS011;59977;48.782;9.190;2023-02-23T05:26:11;43.28;;;23.27;;
24631;SDS011;59977;48.782;9.190;2023-02-23T05:28:39;39.53;;;22.15;;
24631;SDS011;59977;48.782;9.190;2023-02-23T05:31:05;39.92;;;21.48;;
24631;SDS011;59977;48.782;9.190;2023-02-23T05:33:31;41.03;;;21.83;;
24631;SDS011;59977;48.782;9.190;2023-02-23T05:35:58;36.60;;;21.70;;
24631;SDS011;59977;48.782;9.190;2023-02-23T05:38:24;40.05;;;21.65;;
24631;SDS011;59977;48.782;9.190;2023-02-23T05:40:51;42.15;;;22.25;;
24631;SDS011;59977;48.782;9.190;2023-02-23T05:43:17;33.70;;;20.77;;
24631;SDS011;59977;48.782;9.190;2023-02-23T05:45:43;42.45;;;20.48;;
24631;SDS011;59977;48.782;9.190;2023-02-23T05:48:10;45.65;;;20.85;;
24631;SDS011;59977;48.782;9.190;2023-02-23T05:50:36;39.53;;;21.13;;
24631;SDS011;59977;48.782;9.190;2023-02-23T05:53:02;38.90;;;22.23;;
24631;SDS011;59977;48.782;9.190;2023-02-23T05:55:28;35.22;;;20.38;;
24631;SDS011;59977;48.782;9.190;2023-02-23T05:57:54;40.22;;;21.45;;
24631;SDS011;59977;48.782;9.190;2023-02-23T06:00:20;39.28;;;21.55;;
24631;SDS011;59977;48.782;9.190;2023-02-23T06:02:46;34.55;;;21.27;;
24631;SDS011;59977;48.782;9.190;2023-02-23T06:05:13;35.22;;;21.55;;
24631;SDS011;59977;48.782;9.190;2023-02-23T06:07:40;37.33;;;21.90;;
24631;SDS011;59977;48.782;9.190;2023-02-23T06:10:06;34.90;;;20.88;;
24631;SDS011;59977;48.782;9.190;2023-02-23T06:12:32;35.80;;;22.20;;
24631;SDS011;59977;48.782;9.190;2023-02-23T06:14:58;39.05;;;21.45;;
24631;SDS011;59977;48.782;9.190;2023-02-23T06:17:24;42.08;;;21.95;;
24631;SDS011;59977;48.782;9.190;2023-02-23T06:19:50;39.47;;;21.90;;
24631;SDS011;59977;48.782;9.190;2023-02-23T06:22:16;39.80;;;22.13;;
24631;SDS011;59977;48.782;9.190;2023-02-23T06:24:42;44.75;;;22.73;;
24631;SDS011;59977;48.782;9.190;2023-02-23T06:27:08;36.35;;;21.33;;
24631;SDS011;59977;48.782;9.190;2023-02-23T06:29:34;35.20;;;20.45;;
24631;SDS011;59977;48.782;9.190;2023-02-23T06:32:01;39.92;;;21.30;;
24631;SDS011;59977;48.782;9.190;2023-02-23T06:34:27;38.40;;;21.17;;
24631;SDS011;59977;48.782;9.190;2023-02-23T06:36:53;36.72;;;21.20;;
24631;SDS011;59977;48.782;9.190;2023-02-23T06:39:19;37.85;;;21.23;;
24631;SDS011;59977;48.782;9.190;2023-02-23T06:41:45;34.75;;;20.27;;
24631;SDS011;59977;48.782;9.190;2023-02-23T06:44:11;39.97;;;21.85;;
24631;SDS011;59977;48.782;9.190;2023-02-23T06:46:37;38.42;;;21.73;;
24631;SDS011;59977;48.782;9.190;2023-02-23T06:49:03;39.50;;;20.55;;
24631;SDS011;59977;48.782;9.190;2023-02-23T06:51:29;37.92;;;20.45;;
24631;SDS011;59977;48.782;9.190;2023-02-23T06:53:55;37.00;;;20.67;;
24631;SDS011;59977;48.782;9.190;2023-02-23T06:56:21;34.92;;;20.35;;
24631;SDS011;59977;48.782;9.190;2023-02-23T06:58:47;35.83;;;19.95;;
24631;SDS011;59977;48.782;9.190;2023-02-23T07:01:14;37.38;;;20.38;;
24631;SDS011;59977;48.782;9.190;2023-02-23T07:03:40;35.08;;;20.15;;
24631;SDS011;59977;48.782;9.190;2023-02-23T07:06:06;36.40;;;21.60;;
24631;SDS011;59977;48.782;9.190;2023-02-23T07:08:32;36.50;;;19.35;;
24631;SDS011;59977;48.782;9.190;2023-02-23T07:11:08;31.50;;;19.02;;
24631;SDS011;59977;48.782;9.190;2023-02-23T07:13:35;30.48;;;17.98;;
24631;SDS011;59977;48.782;9.190;2023-02-23T07:16:01;36.55;;;18.95;;
24631;SDS011;59977;48.782;9.190;2023-02-23T07:18:27;38.15;;;17.70;;
24631;SDS011;59977;48.782;9.190;2023-02-23T07:20:53;36.28;;;17.95;;
24631;SDS011;59977;48.782;9.190;2023-02-23T07:23:19;33.72;;;17.27;;
24631;SDS011;59977;48.782;9.190;2023-02-23T07:25:46;30.95;;;19.17;;
24631;SDS011;59977;48.782;9.190;2023-02-23T07:28:14;36.78;;;18.83;;
24631;SDS011;59977;48.782;9.190;2023-02-23T07:30:40;41.30;;;19.50;;
24631;SDS011;59977;48.782;9.190;2023-02-23T07:33:07;34.03;;;18.65;;
24631;SDS011;59977;48.782;9.190;2023-02-23T07:35:33;32.35;;;17.88;;
24631;SDS011;59977;48.782;9.190;2023-02-23T07:37:58;28.90;;;18.00;;
24631;SDS011;59977;48.782;9.190;2023-02-23T07:40:24;34.65;;;18.75;;
24631;SDS011;59977;48.782;9.190;2023-02-23T07:42:51;36.30;;;18.10;;
24631;SDS011;59977;48.782;9.190;2023-02-23T07:45:17;36.97;;;17.88;;
24631;SDS011;59977;48.782;9.190;2023-02-23T07:47:43;36.17;;;18.02;;
24631;SDS011;59977;48.782;9.190;2023-02-23T07:50:09;26.08;;;11.90;;
24631;SDS011;59977;48.782;9.190;2023-02-23T07:52:36;31.33;;;12.40;;
24631;SDS011;59977;48.782;9.190;2023-02-23T07:55:03;33.78;;;12.90;;
24631;SDS011;59977;48.782;9.190;2023-02-23T07:57:29;23.63;;;11.35;;
24631;SDS011;59977;48.782;9.190;2023-02-23T07:59:55;22.63;;;10.15;;
24631;SDS011;59977;48.782;9.190;2023-02-23T08:02:21;28.67;;;11.52;;
24631;SDS011;59977;48.782;9.190;2023-02-23T08:04:47;32.53;;;11.80;;
24631;SDS011;59977;48.782;9.190;2023-02-23T08:07:14;24.77;;;10.82;;
24631;SDS011;59977;48.782;9.190;2023-02-23T08:09:40;21.02;;;10.13;;
24631;SDS011;59977;48.782;9.190;2023-02-23T08:12:06;23.40;;;9.50;;
24631;SDS011;59977;48.782;9.190;2023-02-23T08:14:33;25.38;;;10.38;;
24631;SDS011;59977;48.782;9.190;2023-02-23T08:16:59;17.27;;;8.75;;
24631;SDS011;59977;48.782;9.190;2023-02-23T08:19:25;15.57;;;8.00;;
24631;SDS011;59977;48.782;9.190;2023-02-23T08:21:51;22.25;;;7.80;;
24631;SDS011;59977;48.782;9.190;2023-02-23T08:24:17;14.20;;;7.85;;
24631;SDS011;59977;48.782;9.190;2023-02-23T08:26:43;14.98;;;7.78;;
24631;SDS011;59977;48.782;9.190;2023-02-23T08:29:09;20.05;;;8.48;;
24631;SDS011;59977;48.782;9.190;2023-02-23T08:31:35;22.65;;;8.68;;
24631;SDS011;59977;48.782;9.190;2023-02-23T08:34:01;28.60;;;8.45;;
24631;SDS011;59977;48.782;9.190;2023-02-23T08:36:27;25.85;;;8.30;;
24631;SDS011;59977;48.782;9.190;2023-02-23T08:38:53;24.40;;;11.10;;
24631;SDS011;59977;48.782;9.190;2023-02-23T08:41:20;20.90;;;11.65;;
24631;SDS011;59977;48.782;9.190;2023-02-23T08:43:46;30.13;;;13.48;;
24631;SDS011;59977;48.782;9.190;2023-02-23T08:46:12;25.23;;;11.45;;
24631;SDS011;59977;48.782;9.190;2023-02-23T08:48:40;22.27;;;11.98;;
24631;SDS011;59977;48.782;9.190;2023-02-23T08:51:06;18.08;;;9.80;;
24631;SDS011;59977;48.782;9.190;2023-02-23T08:53:32;26.85;;;10.77;;
24631;SDS011;59977;48.782;9.190;2023-02-23T08:55:59;23.67;;;11.07;;
24631;SDS011;59977;48.782;9.190;2023-02-23T08:58:26;28.95;;;12.02;;
24631;SDS011;59977;48.782;9.190;2023-02-23T09:00:55;21.40;;;7.75;;
24631;SDS011;59977;48.782;9.190;2023-02-23T09:03:21;23.27;;;13.32;;
24631;SDS011;59977;48.782;9.190;2023-02-23T09:05:50;23.98;;;13.65;;
24631;SDS011;59977;48.782;9.190;2023-02-23T09:08:16;21.83;;;12.68;;
24631;SDS011;59977;48.782;9.190;2023-02-23T09:10:43;25.23;;;13.43;;
24631;SDS011;59977;48.782;9.190;2023-02-23T09:13:09;23.38;;;13.50;;
24631;SDS011;59977;48.782;9.190;2023-02-23T09:15:36;27.65;;;13.85;;
24631;SDS011;59977;48.782;9.190;2023-02-23T09:18:03;30.55;;;14.88;;
24631;SDS011;59977;48.782;9.190;2023-02-23T09:20:30;25.67;;;14.18;;
24631;SDS011;59977;48.782;9.190;2023-02-23T09:22:56;24.65;;;14.00;;
24631;SDS011;59977;48.782;9.190;2023-02-23T09:25:22;26.17;;;14.00;;
24631;SDS011;59977;48.782;9.190;2023-02-23T09:27:49;32.38;;;14.85;;
24631;SDS011;59977;48.782;9.190;2023-02-23T09:30:15;24.08;;;13.70;;
24631;SDS011;59977;48.782;9.190;2023-02-23T09:32:44;32.75;;;13.82;;
24631;SDS011;59977;48.782;9.190;2023-02-23T09:35:10;30.50;;;14.07;;
24631;SDS011;59977;48.782;9.190;2023-02-23T09:37:36;27.35;;;13.38;;
24631;SDS011;59977;48.782;9.190;2023-02-23T09:40:02;21.90;;;12.88;;
24631;SDS011;59977;48.782;9.190;2023-02-23T09:49:52;25.00;;;12.32;;
24631;SDS011;59977;48.782;9.190;2023-02-23T09:52:20;23.60;;;12.82;;
24631;SDS011;59977;48.782;9.190;2023-02-23T09:54:46;20.85;;;12.18;;
24631;SDS011;59977;48.782;9.190;2023-02-23T09:57:17;20.38;;;13.05;;
24631;SDS011;59977;48.782;9.190;2023-02-23T09:59:44;19.05;;;12.30;;
24631;SDS011;59977;48.782;9.190;2023-02-23T10:04:42;24.73;;;12.02;;
24631;SDS011;59977;48.782;9.190;2023-02-23T10:10:16;29.70;;;12.25;;
24631;SDS011;59977;48.782;9.190;2023-02-23T10:15:15;21.98;;;10.88;;
24631;SDS011;59977;48.782;9.190;2023-02-23T10:17:52;22.73;;;12.77;;
24631;SDS011;59977;48.782;9.190;2023-02-23T10:23:08;30.55;;;11.98;;
24631;SDS011;59977;48.782;9.190;2023-02-23T10:25:39;25.40;;;12.13;;
24631;SDS011;59977;48.782;9.190;2023-02-23T10:28:09;30.50;;;13.02;;
24631;SDS011;59977;48.782;9.190;2023-02-23T10:30:37;33.25;;;13.38;;
24631;SDS011;59977;48.782;9.190;2023-02-23T10:36:14;25.05;;;12.85;;
24631;SDS011;59977;48.782;9.190;2023-02-23T10:38:43;22.63;;;11.82;;
24631;SDS011;59977;48.782;9.190;2023-02-23T10:41:09;25.55;;;11.88;;
24631;SDS011;59977;48.782;9.190;2023-02-23T10:43:35;26.10;;;11.57;;
24631;SDS011;59977;48.782;9.190;2023-02-23T10:46:01;26.25;;;12.27;;
24631;SDS011;59977;48.782;9.190;2023-02-23T10:48:31;29.73;;;12.77;;
24631;SDS011;59977;48.782;9.190;2023-02-23T10:50:58;39.60;;;12.32;;
24631;SDS011;59977;48.782;9.190;2023-02-23T10:53:33;27.70;;;12.63;;
24631;SDS011;59977;48.782;9.190;2023-02-23T10:56:00;32.35;;;12.30;;
24631;SDS011;59977;48.782;9.190;2023-02-23T10:58:27;30.52;;;11.93;;
24631;SDS011;59977;48.782;9.190;2023-02-23T11:00:55;19.20;;;9.77;;
24631;SDS011;59977;48.782;9.190;2023-02-23T11:03:24;25.00;;;10.77;;
24631;SDS011;59977;48.782;9.190;2023-02-23T11:05:52;24.25;;;11.98;;
24631;SDS011;59977;48.782;9.190;2023-02-23T11:13:23;26.88;;;12.27;;
24631;SDS011;59977;48.782;9.190;2023-02-23T11:16:01;27.52;;;11.35;;
24631;SDS011;59977;48.782;9.190;2023-02-23T11:18:28;28.88;;;11.55;;
24631;SDS011;59977;48.782;9.190;2023-02-23T11:20:54;26.25;;;11.18;;
24631;SDS011;59977;48.782;9.190;2023-02-23T11:23:24;24.38;;;10.10;;
24631;SDS011;59977;48.782;9.190;2023-02-23T11:25:53;37.55;;;10.70;;
24631;SDS011;59977;48.782;9.190;2023-02-23T11:28:22;28.83;;;9.27;;
24631;SDS011;59977;48.782;9.190;2023-02-23T11:30:49;21.48;;;9.75;;
24631;SDS011;59977;48.782;9.190;2023-02-23T11:33:16;25.70;;;10.10;;
24631;SDS011;59977;48.782;9.190;2023-02-23T11:35:44;19.55;;;9.07;;
24631;SDS011;59977;48.782;9.190;2023-02-23T11:38:29;27.77;;;8.93;;
24631;SDS011;59977;48.782;9.190;2023-02-23T11:43:25;27.65;;;10.18;;
24631;SDS011;59977;48.782;9.190;2023-02-23T11:45:51;34.97;;;9.63;;
24631;SDS011;59977;48.782;9.190;2023-02-23T11:48:24;28.17;;;9.85;;
24631;SDS011;59977;48.782;9.190;2023-02-23T11:50:52;28.48;;;9.30;;
24631;SDS011;59977;48.782;9.190;2023-02-23T11:53:27;25.15;;;9.63;;
24631;SDS011;59977;48.782;9.190;2023-02-23T11:55:53;22.65;;;8.80;;
24631;SDS011;59977;48.782;9.190;2023-02-23T12:00:59;22.73;;;8.05;;
24631;SDS011;59977;48.782;9.190;2023-02-23T12:03:28;23.30;;;8.10;;
24631;SDS011;59977;48.782;9.190;2023-02-23T12:05:55;23.48;;;8.32;;
24631;SDS011;59977;48.782;9.190;2023-02-23T12:08:45;32.38;;;8.05;;
24631;SDS011;59977;48.782;9.190;2023-02-23T12:11:11;15.43;;;7.57;;
24631;SDS011;59977;48.782;9.190;2023-02-23T12:13:45;13.98;;;7.03;;
24631;SDS011;59977;48.782;9.190;2023-02-23T12:26:30;16.65;;;6.50;;
24631;SDS011;59977;48.782;9.190;2023-02-23T12:29:20;12.05;;;5.38;;
24631;SDS011;59977;48.782;9.190;2023-02-23T12:34:12;21.17;;;5.80;;
24631;SDS011;59977;48.782;9.190;2023-02-23T12:36:41;16.83;;;5.63;;
24631;SDS011;59977;48.782;9.190;2023-02-23T12:44:34;15.57;;;5.00;;
24631;SDS011;59977;48.782;9.190;2023-02-23T12:47:06;11.50;;;4.67;;
24631;SDS011;59977;48.782;9.190;2023-02-23T12:49:38;15.70;;;5.30;;
24631;SDS011;59977;48.782;9.190;2023-02-23T12:52:16;18.17;;;5.47;;
24631;SDS011;59977;48.782;9.190;2023-02-23T12:54:43;21.88;;;5.18;;
24631;SDS011;59977;48.782;9.190;2023-02-23T12:57:32;15.30;;;5.05;;
24631;SDS011;59977;48.782;9.190;2023-02-23T13:00:21;21.33;;;7.15;;
24631;SDS011;59977;48.782;9.190;2023-02-23T13:13:26;15.18;;;4.50;;
24631;SDS011;59977;48.782;9.190;2023-02-23T13:18:26;17.90;;;4.80;;
24631;SDS011;59977;48.782;9.190;2023-02-23T13:20:59;18.33;;;4.80;;
24631;SDS011;59977;48.782;9.190;2023-02-23T13:24:05;12.85;;;4.95;;
24631;SDS011;59977;48.782;9.190;2023-02-23T13:28:53;13.55;;;4.90;;
24631;SDS011;59977;48.782;9.190;2023-02-23T13:31:22;23.00;;;6.30;;
24631;SDS011;59977;48.782;9.190;2023-02-23T13:33:49;11.75;;;5.40;;
24631;SDS011;59977;48.782;9.190;2023-02-23T13:36:15;13.43;;;5.65;;
24631;SDS011;59977;48.782;9.190;2023-02-23T13:43:45;19.20;;;6.68;;
24631;SDS011;59977;48.782;9.190;2023-02-23T13:48:54;20.80;;;7.43;;
24631;SDS011;59977;48.782;9.190;2023-02-23T13:54:16;20.60;;;7.45;;
24631;SDS011;59977;48.782;9.190;2023-02-23T13:56:51;22.83;;;8.20;;
24631;SDS011;59977;48.782;9.190;2023-02-23T13:59:23;24.58;;;6.93;;
24631;SDS011;59977;48.782;9.190;2023-02-23T14:01:50;20.97;;;7.27;;
24631;SDS011;59977;48.782;9.190;2023-02-23T14:04:27;20.67;;;7.07;;
24631;SDS011;59977;48.782;9.190;2023-02-23T14:07:03;16.05;;;6.53;;
24631;SDS011;59977;48.782;9.190;2023-02-23T14:09:31;20.40;;;5.60;;
24631;SDS011;59977;48.782;9.190;2023-02-23T14:12:03;13.13;;;5.68;;
24631;SDS011;59977;48.782;9.190;2023-02-23T14:17:39;21.60;;;5.75;;
24631;SDS011;59977;48.782;9.190;2023-02-23T14:22:21;23.48;;;5.97;;
24631;SDS011;59977;48.782;9.190;2023-02-23T14:27:33;15.43;;;6.05;;
24631;SDS011;59977;48.782;9.190;2023-02-23T14:32:29;11.57;;;5.05;;
24631;SDS011;59977;48.782;9.190;2023-02-23T14:34:59;15.95;;;6.35;;
24631;SDS011;59977;48.782;9.190;2023-02-23T14:37:33;10.38;;;5.53;;
24631;SDS011;59977;48.782;9.190;2023-02-23T14:40:02;16.02;;;5.32;;
24631;SDS011;59977;48.782;9.190;2023-02-23T14:42:29;13.75;;;5.70;;
24631;SDS011;59977;48.782;9.190;2023-02-23T14:44:57;14.45;;;4.90;;
24631;SDS011;59977;48.782;9.190;2023-02-23T14:47:27;19.63;;;5.22;;
24631;SDS011;59977;48.782;9.190;2023-02-23T14:52:28;13.75;;;3.72;;
24631;SDS011;59977;48.782;9.190;2023-02-23T14:57:37;10.40;;;3.20;;
24631;SDS011;59977;48.782;9.190;2023-02-23T15:00:08;10.23;;;3.40;;
24631;SDS011;59977;48.782;9.190;2023-02-23T15:02:51;18.73;;;3.63;;
24631;SDS011;59977;48.782;9.190;2023-02-23T15:05:17;20.95;;;3.60;;
24631;SDS011;59977;48.782;9.190;2023-02-23T15:07:44;14.20;;;3.83;;
24631;SDS011;59977;48.782;9.190;2023-02-23T15:10:16;16.20;;;3.65;;
24631;SDS011;59977;48.782;9.190;2023-02-23T15:12:43;18.08;;;3.63;;
24631;SDS011;59977;48.782;9.190;2023-02-23T15:15:16;14.93;;;3.70;;
24631;SDS011;59977;48.782;9.190;2023-02-23T15:17:43;17.15;;;4.07;;
24631;SDS011;59977;48.782;9.190;2023-02-23T15:20:12;18.00;;;4.00;;
24631;SDS011;59977;48.782;9.190;2023-02-23T15:22:39;11.82;;;4.18;;
24631;SDS011;59977;48.782;9.190;2023-02-23T15:25:13;11.13;;;4.15;;
24631;SDS011;59977;48.782;9.190;2023-02-23T15:27:42;14.05;;;4.38;;
24631;SDS011;59977;48.782;9.190;2023-02-23T15:30:29;15.88;;;4.47;;
24631;SDS011;59977;48.782;9.190;2023-02-23T15:33:02;14.98;;;4.60;;
24631;SDS011;59977;48.782;9.190;2023-02-23T15:35:29;13.63;;;4.50;;
24631;SDS011;59977;48.782;9.190;2023-02-23T15:37:56;12.60;;;4.72;;
24631;SDS011;59977;48.782;9.190;2023-02-23T15:40:23;20.17;;;5.63;;
24631;SDS011;59977;48.782;9.190;2023-02-23T15:42:52;13.18;;;5.18;;
24631;SDS011;59977;48.782;9.190;2023-02-23T15:45:22;11.35;;;4.70;;
24631;SDS011;59977;48.782;9.190;2023-02-23T15:47:52;14.68;;;5.07;;
24631;SDS011;59977;48.782;9.190;2023-02-23T15:50:22;17.77;;;5.00;;
24631;SDS011;59977;48.782;9.190;2023-02-23T15:52:51;12.90;;;5.00;;
24631;SDS011;59977;48.782;9.190;2023-02-23T15:55:26;13.60;;;4.97;;
24631;SDS011;59977;48.782;9.190;2023-02-23T15:57:56;14.73;;;6.22;;
24631;SDS011;59977;48.782;9.190;2023-02-23T16:00:27;24.52;;;5.47;;
24631;SDS011;59977;48.782;9.190;2023-02-23T16:02:58;22.48;;;5.30;;
24631;SDS011;59977;48.782;9.190;2023-02-23T16:05:26;14.43;;;5.80;;
24631;SDS011;59977;48.782;9.190;2023-02-23T16:08:14;14.65;;;5.75;;
24631;SDS011;59977;48.782;9.190;2023-02-23T16:10:46;14.82;;;4.93;;
24631;SDS011;59977;48.782;9.190;2023-02-23T16:13:14;25.50;;;5.30;;
24631;SDS011;59977;48.782;9.190;2023-02-23T16:15:41;22.15;;;8.05;;
24631;SDS011;59977;48.782;9.190;2023-02-23T16:18:16;14.88;;;5.40;;
24631;SDS011;59977;48.782;9.190;2023-02-23T16:20:50;19.95;;;5.90;;
24631;SDS011;59977;48.782;9.190;2023-02-23T16:26:14;12.10;;;5.57;;
24631;SDS011;59977;48.782;9.190;2023-02-23T16:28:42;16.08;;;5.65;;
24631;SDS011;59977;48.782;9.190;2023-02-23T16:31:09;12.25;;;6.50;;
24631;SDS011;59977;48.782;9.190;2023-02-23T16:33:53;26.17;;;7.88;;
24631;SDS011;59977;48.782;9.190;2023-02-23T16:36:32;14.27;;;5.65;;
24631;SDS011;59977;48.782;9.190;2023-02-23T16:39:02;17.58;;;6.00;;
24631;SDS011;59977;48.782;9.190;2023-02-23T16:41:31;18.35;;;6.05;;
24631;SDS011;59977;48.782;9.190;2023-02-23T16:44:00;16.80;;;5.88;;
24631;SDS011;59977;48.782;9.190;2023-02-23T16:46:30;22.27;;;5.70;;
24631;SDS011;59977;48.782;9.190;2023-02-23T16:48:57;21.30;;;6.07;;